Portada
METAR-TAF:

METAR-TAF

Aeroports :

Radom-Sadków

Radom, Polònia

latitud: 51-23-21N, longitud: 21-12-49E, altitud: 186 m

Observació

L'informe es va fer fa 30 minuts, a les 13:30 UTC
Vent 10 kt del Sud-Est, variant entre Est/Sud-Est i Sud
Temperatura 30°C
Humitat 40%
Pressió 1019 hPa
Visibilitat 10 km o més
sense núvols per sota de 1500 mi sense presència de cumulonimbus.

METAR: EPRA 181330Z 13010KT 110V170 CAVOK 30/15 Q1019

Hora: 16:00 (14:00 UTC)

Pronòstic

L'informe es va fer fa 2 hores i 30 minuts, a les 11:30 UTC
Pronòstic vàlid del 18 a les 12 UTC al 18 a les 21 UTC
Vent 8 kt del Sud-Est
Visibilitat 10 km o més
sense núvols per sota de 1500 mi sense presència de cumulonimbus.

TAF: EPRA 181130Z 1812/1821 14008KT CAVOK

Observacions i pronòstics meteorològics de més de 4000 aeroports (METAR i TAF).

Les estacions disponibles són els punts grocs i vermells al mapa.

Posi el ratolí al punt desitjat per veure el nom de l'estació.

Feu clic per veure les observacions i els pronòstics meteorològics.

Per canviar el mapa: feu clic els botons verds amb una creu de color negre per apropar; al botó verd amb un guió per allunyar la imatge; o en les fletxes verdes per a mapes adjacents.


METAR-TAF: